sensor_id;sensor_type;location;lat;lon;timestamp;P1;durP1;ratioP1;P2;durP2;ratioP2
53525;SDS011;40551;50.478;19.378;2022-07-23T00:01:41;14.90;;;13.50;;
53525;SDS011;40551;50.478;19.378;2022-07-23T00:04:13;16.90;;;15.20;;
53525;SDS011;40551;50.478;19.378;2022-07-23T00:06:45;16.80;;;15.00;;
53525;SDS011;40551;50.478;19.378;2022-07-23T00:09:16;16.20;;;14.70;;
53525;SDS011;40551;50.478;19.378;2022-07-23T00:11:48;18.30;;;16.60;;
53525;SDS011;40551;50.478;19.378;2022-07-23T00:14:19;18.20;;;16.50;;
53525;SDS011;40551;50.478;19.378;2022-07-23T00:16:51;19.20;;;17.30;;
53525;SDS011;40551;50.478;19.378;2022-07-23T00:19:24;17.00;;;15.30;;
53525;SDS011;40551;50.478;19.378;2022-07-23T00:22:01;18.30;;;16.70;;
53525;SDS011;40551;50.478;19.378;2022-07-23T00:24:32;16.40;;;14.60;;
53525;SDS011;40551;50.478;19.378;2022-07-23T00:27:04;16.70;;;15.10;;
53525;SDS011;40551;50.478;19.378;2022-07-23T00:29:36;18.50;;;16.70;;
53525;SDS011;40551;50.478;19.378;2022-07-23T00:32:07;16.00;;;14.40;;
53525;SDS011;40551;50.478;19.378;2022-07-23T00:34:39;16.10;;;14.40;;
53525;SDS011;40551;50.478;19.378;2022-07-23T00:37:11;15.70;;;14.20;;
53525;SDS011;40551;50.478;19.378;2022-07-23T00:39:43;17.20;;;13.80;;
53525;SDS011;40551;50.478;19.378;2022-07-23T00:42:15;14.70;;;13.20;;
53525;SDS011;40551;50.478;19.378;2022-07-23T00:44:46;15.80;;;14.20;;
53525;SDS011;40551;50.478;19.378;2022-07-23T00:47:18;17.80;;;16.00;;
53525;SDS011;40551;50.478;19.378;2022-07-23T00:49:49;16.20;;;14.70;;
53525;SDS011;40551;50.478;19.378;2022-07-23T00:52:21;15.60;;;13.90;;
53525;SDS011;40551;50.478;19.378;2022-07-23T00:54:53;15.80;;;14.30;;
53525;SDS011;40551;50.478;19.378;2022-07-23T00:57:25;16.50;;;14.60;;
53525;SDS011;40551;50.478;19.378;2022-07-23T00:59:57;17.30;;;15.50;;
53525;SDS011;40551;50.478;19.378;2022-07-23T01:02:29;15.00;;;13.00;;
53525;SDS011;40551;50.478;19.378;2022-07-23T01:05:01;14.10;;;12.70;;
53525;SDS011;40551;50.478;19.378;2022-07-23T01:07:33;16.90;;;15.30;;
53525;SDS011;40551;50.478;19.378;2022-07-23T01:10:06;15.00;;;13.60;;
53525;SDS011;40551;50.478;19.378;2022-07-23T01:12:52;14.60;;;13.20;;
53525;SDS011;40551;50.478;19.378;2022-07-23T01:15:24;17.90;;;15.60;;
53525;SDS011;40551;50.478;19.378;2022-07-23T01:17:56;16.00;;;14.40;;
53525;SDS011;40551;50.478;19.378;2022-07-23T01:20:28;17.30;;;15.50;;
53525;SDS011;40551;50.478;19.378;2022-07-23T01:23:00;18.00;;;16.30;;
53525;SDS011;40551;50.478;19.378;2022-07-23T01:25:32;17.10;;;15.50;;
53525;SDS011;40551;50.478;19.378;2022-07-23T01:28:05;15.70;;;13.30;;
53525;SDS011;40551;50.478;19.378;2022-07-23T01:30:37;16.10;;;14.40;;
53525;SDS011;40551;50.478;19.378;2022-07-23T01:33:09;15.80;;;14.30;;
53525;SDS011;40551;50.478;19.378;2022-07-23T01:35:41;15.60;;;14.20;;
53525;SDS011;40551;50.478;19.378;2022-07-23T01:38:19;14.80;;;13.20;;
53525;SDS011;40551;50.478;19.378;2022-07-23T01:40:51;15.20;;;13.40;;
53525;SDS011;40551;50.478;19.378;2022-07-23T01:43:26;14.70;;;13.30;;
53525;SDS011;40551;50.478;19.378;2022-07-23T01:45:58;18.80;;;17.10;;
53525;SDS011;40551;50.478;19.378;2022-07-23T01:48:35;18.70;;;16.70;;
53525;SDS011;40551;50.478;19.378;2022-07-23T01:51:21;16.90;;;15.20;;
53525;SDS011;40551;50.478;19.378;2022-07-23T01:53:59;16.00;;;14.10;;
53525;SDS011;40551;50.478;19.378;2022-07-23T01:56:31;16.60;;;15.00;;
53525;SDS011;40551;50.478;19.378;2022-07-23T01:59:03;16.60;;;14.90;;
53525;SDS011;40551;50.478;19.378;2022-07-23T02:01:35;17.80;;;16.10;;
53525;SDS011;40551;50.478;19.378;2022-07-23T02:04:07;16.60;;;15.10;;
53525;SDS011;40551;50.478;19.378;2022-07-23T02:06:38;16.80;;;15.20;;
53525;SDS011;40551;50.478;19.378;2022-07-23T02:09:11;15.80;;;14.40;;
53525;SDS011;40551;50.478;19.378;2022-07-23T02:11:43;21.10;;;15.00;;
53525;SDS011;40551;50.478;19.378;2022-07-23T02:14:15;16.50;;;14.80;;
53525;SDS011;40551;50.478;19.378;2022-07-23T02:16:47;16.30;;;14.70;;
53525;SDS011;40551;50.478;19.378;2022-07-23T02:19:19;16.90;;;15.30;;
53525;SDS011;40551;50.478;19.378;2022-07-23T02:21:51;14.90;;;13.40;;
53525;SDS011;40551;50.478;19.378;2022-07-23T02:24:24;13.80;;;12.50;;
53525;SDS011;40551;50.478;19.378;2022-07-23T02:26:56;14.80;;;13.30;;
53525;SDS011;40551;50.478;19.378;2022-07-23T02:29:28;13.60;;;12.20;;
53525;SDS011;40551;50.478;19.378;2022-07-23T02:32:00;15.10;;;13.20;;
53525;SDS011;40551;50.478;19.378;2022-07-23T02:34:32;14.10;;;12.30;;
53525;SDS011;40551;50.478;19.378;2022-07-23T02:37:04;15.00;;;13.70;;
53525;SDS011;40551;50.478;19.378;2022-07-23T02:39:37;14.40;;;12.90;;
53525;SDS011;40551;50.478;19.378;2022-07-23T02:42:09;16.30;;;14.50;;
53525;SDS011;40551;50.478;19.378;2022-07-23T02:44:42;16.60;;;13.00;;
53525;SDS011;40551;50.478;19.378;2022-07-23T02:47:14;15.30;;;12.90;;
53525;SDS011;40551;50.478;19.378;2022-07-23T02:49:46;15.20;;;13.60;;
53525;SDS011;40551;50.478;19.378;2022-07-23T02:52:19;16.20;;;14.00;;
53525;SDS011;40551;50.478;19.378;2022-07-23T02:54:50;15.70;;;13.70;;
53525;SDS011;40551;50.478;19.378;2022-07-23T02:57:22;15.80;;;14.30;;
53525;SDS011;40551;50.478;19.378;2022-07-23T02:59:53;18.20;;;15.50;;
53525;SDS011;40551;50.478;19.378;2022-07-23T03:02:25;17.70;;;14.80;;
53525;SDS011;40551;50.478;19.378;2022-07-23T03:04:57;15.70;;;14.20;;
53525;SDS011;40551;50.478;19.378;2022-07-23T03:07:28;15.10;;;13.60;;
53525;SDS011;40551;50.478;19.378;2022-07-23T03:10:00;14.30;;;12.80;;
53525;SDS011;40551;50.478;19.378;2022-07-23T03:12:32;16.80;;;14.10;;
53525;SDS011;40551;50.478;19.378;2022-07-23T03:15:06;17.70;;;15.80;;
53525;SDS011;40551;50.478;19.378;2022-07-23T03:17:40;17.40;;;15.90;;
53525;SDS011;40551;50.478;19.378;2022-07-23T03:20:12;15.60;;;14.10;;
53525;SDS011;40551;50.478;19.378;2022-07-23T03:22:43;14.00;;;12.50;;
53525;SDS011;40551;50.478;19.378;2022-07-23T03:25:17;18.00;;;16.30;;
53525;SDS011;40551;50.478;19.378;2022-07-23T03:27:49;17.70;;;16.10;;
53525;SDS011;40551;50.478;19.378;2022-07-23T03:30:20;16.90;;;15.30;;
53525;SDS011;40551;50.478;19.378;2022-07-23T03:32:52;20.80;;;17.00;;
53525;SDS011;40551;50.478;19.378;2022-07-23T03:35:24;16.50;;;14.80;;
53525;SDS011;40551;50.478;19.378;2022-07-23T03:38:19;14.90;;;13.10;;
53525;SDS011;40551;50.478;19.378;2022-07-23T03:40:51;15.40;;;13.90;;
53525;SDS011;40551;50.478;19.378;2022-07-23T03:43:23;14.40;;;13.00;;
53525;SDS011;40551;50.478;19.378;2022-07-23T03:45:55;16.30;;;14.70;;
53525;SDS011;40551;50.478;19.378;2022-07-23T03:48:27;15.60;;;14.10;;
53525;SDS011;40551;50.478;19.378;2022-07-23T03:51:00;16.30;;;14.70;;
53525;SDS011;40551;50.478;19.378;2022-07-23T03:53:32;16.30;;;14.70;;
53525;SDS011;40551;50.478;19.378;2022-07-23T03:56:04;16.20;;;12.00;;
53525;SDS011;40551;50.478;19.378;2022-07-23T03:58:36;12.70;;;11.30;;
53525;SDS011;40551;50.478;19.378;2022-07-23T04:01:07;14.30;;;12.80;;
53525;SDS011;40551;50.478;19.378;2022-07-23T04:03:40;13.90;;;12.60;;
53525;SDS011;40551;50.478;19.378;2022-07-23T04:06:12;13.00;;;11.80;;
53525;SDS011;40551;50.478;19.378;2022-07-23T04:08:44;15.40;;;13.80;;
53525;SDS011;40551;50.478;19.378;2022-07-23T04:11:16;14.30;;;12.20;;
53525;SDS011;40551;50.478;19.378;2022-07-23T04:13:47;12.30;;;10.30;;
53525;SDS011;40551;50.478;19.378;2022-07-23T04:16:19;14.30;;;11.00;;
53525;SDS011;40551;50.478;19.378;2022-07-23T04:18:51;14.00;;;12.50;;
53525;SDS011;40551;50.478;19.378;2022-07-23T04:21:23;15.00;;;13.60;;
53525;SDS011;40551;50.478;19.378;2022-07-23T04:23:56;15.40;;;13.90;;
53525;SDS011;40551;50.478;19.378;2022-07-23T04:26:28;15.10;;;13.60;;
53525;SDS011;40551;50.478;19.378;2022-07-23T04:28:59;15.00;;;12.60;;
53525;SDS011;40551;50.478;19.378;2022-07-23T04:31:32;13.80;;;12.50;;
53525;SDS011;40551;50.478;19.378;2022-07-23T04:34:06;15.10;;;12.60;;
53525;SDS011;40551;50.478;19.378;2022-07-23T04:36:38;20.90;;;18.00;;
53525;SDS011;40551;50.478;19.378;2022-07-23T04:39:10;14.80;;;13.30;;
53525;SDS011;40551;50.478;19.378;2022-07-23T04:41:42;13.00;;;11.60;;
53525;SDS011;40551;50.478;19.378;2022-07-23T04:44:15;18.40;;;13.40;;
53525;SDS011;40551;50.478;19.378;2022-07-23T04:46:47;18.40;;;15.50;;
53525;SDS011;40551;50.478;19.378;2022-07-23T04:49:22;19.20;;;16.40;;
53525;SDS011;40551;50.478;19.378;2022-07-23T04:51:53;15.50;;;12.40;;
53525;SDS011;40551;50.478;19.378;2022-07-23T04:54:25;19.20;;;13.20;;
53525;SDS011;40551;50.478;19.378;2022-07-23T04:56:57;12.90;;;10.30;;
53525;SDS011;40551;50.478;19.378;2022-07-23T04:59:29;18.50;;;10.60;;
53525;SDS011;40551;50.478;19.378;2022-07-23T05:02:04;15.30;;;12.40;;
53525;SDS011;40551;50.478;19.378;2022-07-23T05:04:35;14.30;;;12.40;;
53525;SDS011;40551;50.478;19.378;2022-07-23T05:07:07;13.60;;;10.80;;
53525;SDS011;40551;50.478;19.378;2022-07-23T05:09:39;12.40;;;10.80;;
53525;SDS011;40551;50.478;19.378;2022-07-23T05:12:11;12.50;;;10.90;;
53525;SDS011;40551;50.478;19.378;2022-07-23T05:14:44;14.30;;;11.80;;
53525;SDS011;40551;50.478;19.378;2022-07-23T05:17:16;13.50;;;11.20;;
53525;SDS011;40551;50.478;19.378;2022-07-23T05:19:47;12.40;;;10.70;;
53525;SDS011;40551;50.478;19.378;2022-07-23T05:22:26;13.80;;;11.10;;
53525;SDS011;40551;50.478;19.378;2022-07-23T05:24:58;12.90;;;11.50;;
53525;SDS011;40551;50.478;19.378;2022-07-23T05:27:29;15.80;;;11.10;;
53525;SDS011;40551;50.478;19.378;2022-07-23T05:30:01;11.40;;;10.00;;
53525;SDS011;40551;50.478;19.378;2022-07-23T05:32:35;11.30;;;10.10;;
53525;SDS011;40551;50.478;19.378;2022-07-23T05:35:14;12.00;;;9.50;;
53525;SDS011;40551;50.478;19.378;2022-07-23T05:37:54;13.10;;;9.90;;
53525;SDS011;40551;50.478;19.378;2022-07-23T05:40:25;12.60;;;9.90;;
53525;SDS011;40551;50.478;19.378;2022-07-23T05:42:58;13.70;;;10.30;;
53525;SDS011;40551;50.478;19.378;2022-07-23T05:45:30;13.10;;;10.60;;
53525;SDS011;40551;50.478;19.378;2022-07-23T05:48:02;13.30;;;9.60;;
53525;SDS011;40551;50.478;19.378;2022-07-23T05:50:39;11.50;;;10.00;;
53525;SDS011;40551;50.478;19.378;2022-07-23T05:53:18;13.00;;;9.60;;
53525;SDS011;40551;50.478;19.378;2022-07-23T05:56:02;10.80;;;9.10;;
53525;SDS011;40551;50.478;19.378;2022-07-23T05:58:33;10.50;;;8.70;;
53525;SDS011;40551;50.478;19.378;2022-07-23T06:01:05;12.10;;;8.80;;
53525;SDS011;40551;50.478;19.378;2022-07-23T06:03:43;10.10;;;7.80;;
53525;SDS011;40551;50.478;19.378;2022-07-23T06:06:15;15.80;;;14.30;;
53525;SDS011;40551;50.478;19.378;2022-07-23T06:08:47;63.20;;;58.10;;
53525;SDS011;40551;50.478;19.378;2022-07-23T06:11:19;17.20;;;13.70;;
53525;SDS011;40551;50.478;19.378;2022-07-23T06:13:50;12.10;;;9.30;;
53525;SDS011;40551;50.478;19.378;2022-07-23T06:16:24;15.80;;;8.80;;
53525;SDS011;40551;50.478;19.378;2022-07-23T06:18:57;11.20;;;8.70;;
53525;SDS011;40551;50.478;19.378;2022-07-23T06:21:30;16.60;;;7.90;;
53525;SDS011;40551;50.478;19.378;2022-07-23T06:24:18;12.20;;;9.20;;
53525;SDS011;40551;50.478;19.378;2022-07-23T06:26:50;13.00;;;9.10;;
53525;SDS011;40551;50.478;19.378;2022-07-23T06:29:22;13.40;;;9.50;;
53525;SDS011;40551;50.478;19.378;2022-07-23T06:31:54;16.30;;;9.90;;
53525;SDS011;40551;50.478;19.378;2022-07-23T06:34:26;16.00;;;10.50;;
53525;SDS011;40551;50.478;19.378;2022-07-23T06:36:59;15.20;;;10.30;;
53525;SDS011;40551;50.478;19.378;2022-07-23T06:39:33;20.20;;;9.90;;
53525;SDS011;40551;50.478;19.378;2022-07-23T06:42:05;15.40;;;7.70;;
53525;SDS011;40551;50.478;19.378;2022-07-23T06:44:45;13.60;;;7.20;;
53525;SDS011;40551;50.478;19.378;2022-07-23T06:47:18;10.70;;;6.80;;
53525;SDS011;40551;50.478;19.378;2022-07-23T06:49:50;10.90;;;7.10;;
53525;SDS011;40551;50.478;19.378;2022-07-23T06:52:21;11.40;;;7.60;;
53525;SDS011;40551;50.478;19.378;2022-07-23T06:54:54;11.10;;;7.00;;
53525;SDS011;40551;50.478;19.378;2022-07-23T06:57:26;13.10;;;7.10;;
53525;SDS011;40551;50.478;19.378;2022-07-23T07:00:02;14.80;;;6.30;;
53525;SDS011;40551;50.478;19.378;2022-07-23T07:02:38;11.20;;;5.70;;
53525;SDS011;40551;50.478;19.378;2022-07-23T07:05:09;11.50;;;5.30;;
53525;SDS011;40551;50.478;19.378;2022-07-23T07:07:42;9.20;;;5.10;;
53525;SDS011;40551;50.478;19.378;2022-07-23T07:10:14;11.80;;;5.70;;
53525;SDS011;40551;50.478;19.378;2022-07-23T07:12:46;10.20;;;5.00;;
53525;SDS011;40551;50.478;19.378;2022-07-23T07:15:18;10.20;;;4.90;;
53525;SDS011;40551;50.478;19.378;2022-07-23T07:17:50;9.20;;;4.60;;
53525;SDS011;40551;50.478;19.378;2022-07-23T07:20:21;13.70;;;5.70;;
53525;SDS011;40551;50.478;19.378;2022-07-23T07:22:53;9.50;;;4.60;;
53525;SDS011;40551;50.478;19.378;2022-07-23T07:25:25;8.40;;;5.40;;
53525;SDS011;40551;50.478;19.378;2022-07-23T07:27:58;10.80;;;5.00;;
53525;SDS011;40551;50.478;19.378;2022-07-23T07:30:30;9.40;;;4.80;;
53525;SDS011;40551;50.478;19.378;2022-07-23T07:33:02;12.30;;;5.20;;
53525;SDS011;40551;50.478;19.378;2022-07-23T07:35:34;10.60;;;5.60;;
53525;SDS011;40551;50.478;19.378;2022-07-23T07:38:06;8.80;;;5.20;;
53525;SDS011;40551;50.478;19.378;2022-07-23T07:40:38;11.90;;;5.20;;
53525;SDS011;40551;50.478;19.378;2022-07-23T07:43:10;13.00;;;5.10;;
53525;SDS011;40551;50.478;19.378;2022-07-23T07:45:41;9.50;;;5.30;;
53525;SDS011;40551;50.478;19.378;2022-07-23T07:48:13;9.70;;;5.20;;
53525;SDS011;40551;50.478;19.378;2022-07-23T07:50:45;12.00;;;5.20;;
53525;SDS011;40551;50.478;19.378;2022-07-23T07:53:17;8.20;;;5.10;;
53525;SDS011;40551;50.478;19.378;2022-07-23T07:55:49;8.80;;;4.40;;
53525;SDS011;40551;50.478;19.378;2022-07-23T07:58:21;7.20;;;4.20;;
53525;SDS011;40551;50.478;19.378;2022-07-23T08:00:53;8.10;;;4.90;;
53525;SDS011;40551;50.478;19.378;2022-07-23T08:03:25;11.50;;;4.90;;
53525;SDS011;40551;50.478;19.378;2022-07-23T08:05:57;10.10;;;5.10;;
53525;SDS011;40551;50.478;19.378;2022-07-23T08:08:29;9.90;;;5.20;;
53525;SDS011;40551;50.478;19.378;2022-07-23T08:11:00;10.30;;;4.50;;
53525;SDS011;40551;50.478;19.378;2022-07-23T08:13:32;9.20;;;4.60;;
53525;SDS011;40551;50.478;19.378;2022-07-23T08:16:05;7.70;;;5.10;;
53525;SDS011;40551;50.478;19.378;2022-07-23T08:18:38;9.50;;;5.70;;
53525;SDS011;40551;50.478;19.378;2022-07-23T08:21:09;9.30;;;5.90;;
53525;SDS011;40551;50.478;19.378;2022-07-23T08:23:41;12.50;;;5.90;;
53525;SDS011;40551;50.478;19.378;2022-07-23T08:26:13;12.30;;;5.90;;
53525;SDS011;40551;50.478;19.378;2022-07-23T08:28:44;11.80;;;5.50;;
53525;SDS011;40551;50.478;19.378;2022-07-23T08:31:16;11.40;;;6.00;;
53525;SDS011;40551;50.478;19.378;2022-07-23T08:33:48;10.30;;;6.00;;
53525;SDS011;40551;50.478;19.378;2022-07-23T08:36:21;10.00;;;5.70;;
53525;SDS011;40551;50.478;19.378;2022-07-23T08:38:52;10.60;;;6.20;;
53525;SDS011;40551;50.478;19.378;2022-07-23T08:41:24;16.90;;;6.00;;
53525;SDS011;40551;50.478;19.378;2022-07-23T08:43:56;9.50;;;5.20;;
53525;SDS011;40551;50.478;19.378;2022-07-23T08:46:30;9.60;;;5.70;;
53525;SDS011;40551;50.478;19.378;2022-07-23T08:49:06;10.00;;;5.60;;
53525;SDS011;40551;50.478;19.378;2022-07-23T08:51:38;9.80;;;5.80;;
53525;SDS011;40551;50.478;19.378;2022-07-23T08:54:11;8.40;;;5.60;;
53525;SDS011;40551;50.478;19.378;2022-07-23T08:56:43;9.70;;;4.80;;
53525;SDS011;40551;50.478;19.378;2022-07-23T08:59:14;9.30;;;5.20;;
53525;SDS011;40551;50.478;19.378;2022-07-23T09:01:46;8.30;;;5.30;;
53525;SDS011;40551;50.478;19.378;2022-07-23T09:04:19;8.00;;;5.30;;
53525;SDS011;40551;50.478;19.378;2022-07-23T09:06:55;8.90;;;5.00;;
53525;SDS011;40551;50.478;19.378;2022-07-23T09:09:27;10.70;;;5.70;;
53525;SDS011;40551;50.478;19.378;2022-07-23T09:12:03;9.10;;;4.70;;
53525;SDS011;40551;50.478;19.378;2022-07-23T09:14:37;8.50;;;4.90;;
53525;SDS011;40551;50.478;19.378;2022-07-23T09:17:13;7.70;;;5.00;;
53525;SDS011;40551;50.478;19.378;2022-07-23T09:19:46;9.30;;;5.40;;
53525;SDS011;40551;50.478;19.378;2022-07-23T09:22:19;11.20;;;4.90;;
53525;SDS011;40551;50.478;19.378;2022-07-23T09:25:07;7.50;;;4.30;;
53525;SDS011;40551;50.478;19.378;2022-07-23T09:27:51;9.80;;;5.30;;
53525;SDS011;40551;50.478;19.378;2022-07-23T09:30:25;9.70;;;5.10;;
53525;SDS011;40551;50.478;19.378;2022-07-23T09:33:05;7.90;;;5.00;;
53525;SDS011;40551;50.478;19.378;2022-07-23T09:35:46;10.20;;;4.80;;
53525;SDS011;40551;50.478;19.378;2022-07-23T09:38:19;9.00;;;4.60;;
53525;SDS011;40551;50.478;19.378;2022-07-23T09:43:38;11.30;;;5.10;;
53525;SDS011;40551;50.478;19.378;2022-07-23T09:46:19;6.80;;;4.10;;
53525;SDS011;40551;50.478;19.378;2022-07-23T09:48:53;13.40;;;6.00;;
53525;SDS011;40551;50.478;19.378;2022-07-23T09:51:26;10.30;;;4.90;;
53525;SDS011;40551;50.478;19.378;2022-07-23T09:54:02;9.20;;;4.70;;
53525;SDS011;40551;50.478;19.378;2022-07-23T09:56:35;9.80;;;4.60;;
53525;SDS011;40551;50.478;19.378;2022-07-23T09:59:07;7.70;;;4.20;;
53525;SDS011;40551;50.478;19.378;2022-07-23T10:01:40;10.40;;;4.70;;
53525;SDS011;40551;50.478;19.378;2022-07-23T10:04:12;6.50;;;4.50;;
53525;SDS011;40551;50.478;19.378;2022-07-23T10:07:03;8.10;;;5.10;;
53525;SDS011;40551;50.478;19.378;2022-07-23T10:10:00;7.10;;;4.80;;
53525;SDS011;40551;50.478;19.378;2022-07-23T10:12:58;8.50;;;4.80;;
53525;SDS011;40551;50.478;19.378;2022-07-23T10:15:49;8.80;;;5.10;;
53525;SDS011;40551;50.478;19.378;2022-07-23T10:18:21;8.60;;;5.10;;
53525;SDS011;40551;50.478;19.378;2022-07-23T10:20:53;13.20;;;5.10;;
53525;SDS011;40551;50.478;19.378;2022-07-23T10:23:27;11.50;;;5.90;;
53525;SDS011;40551;50.478;19.378;2022-07-23T10:26:05;9.90;;;5.00;;
53525;SDS011;40551;50.478;19.378;2022-07-23T10:28:51;7.70;;;5.10;;
53525;SDS011;40551;50.478;19.378;2022-07-23T10:31:35;10.70;;;5.10;;
53525;SDS011;40551;50.478;19.378;2022-07-23T10:34:29;11.60;;;5.80;;
53525;SDS011;40551;50.478;19.378;2022-07-23T10:37:12;12.20;;;6.00;;
53525;SDS011;40551;50.478;19.378;2022-07-23T10:39:49;13.10;;;6.80;;
53525;SDS011;40551;50.478;19.378;2022-07-23T10:48:15;9.30;;;6.30;;
53525;SDS011;40551;50.478;19.378;2022-07-23T10:51:07;11.70;;;7.40;;
53525;SDS011;40551;50.478;19.378;2022-07-23T10:53:54;15.00;;;8.20;;
53525;SDS011;40551;50.478;19.378;2022-07-23T10:56:50;12.00;;;7.40;;
53525;SDS011;40551;50.478;19.378;2022-07-23T11:02:52;14.10;;;6.80;;
53525;SDS011;40551;50.478;19.378;2022-07-23T11:05:25;11.50;;;6.50;;
53525;SDS011;40551;50.478;19.378;2022-07-23T11:08:16;11.50;;;6.20;;
53525;SDS011;40551;50.478;19.378;2022-07-23T11:10:50;9.70;;;6.90;;
53525;SDS011;40551;50.478;19.378;2022-07-23T11:16:25;11.40;;;6.70;;
53525;SDS011;40551;50.478;19.378;2022-07-23T11:18:57;14.00;;;7.00;;
53525;SDS011;40551;50.478;19.378;2022-07-23T11:21:42;11.80;;;6.40;;
53525;SDS011;40551;50.478;19.378;2022-07-23T11:24:19;14.30;;;6.50;;
53525;SDS011;40551;50.478;19.378;2022-07-23T11:26:59;9.00;;;6.30;;
53525;SDS011;40551;50.478;19.378;2022-07-23T11:29:42;14.60;;;6.30;;
53525;SDS011;40551;50.478;19.378;2022-07-23T11:32:27;15.40;;;6.60;;
53525;SDS011;40551;50.478;19.378;2022-07-23T11:35:06;12.00;;;6.60;;
53525;SDS011;40551;50.478;19.378;2022-07-23T11:37:51;9.20;;;6.10;;
53525;SDS011;40551;50.478;19.378;2022-07-23T11:40:27;9.70;;;6.60;;
53525;SDS011;40551;50.478;19.378;2022-07-23T11:42:59;10.90;;;6.60;;
53525;SDS011;40551;50.478;19.378;2022-07-23T11:45:33;12.10;;;6.60;;
53525;SDS011;40551;50.478;19.378;2022-07-23T11:48:07;11.50;;;6.40;;
53525;SDS011;40551;50.478;19.378;2022-07-23T11:50:46;11.00;;;6.50;;
53525;SDS011;40551;50.478;19.378;2022-07-23T11:53:25;10.80;;;6.20;;
53525;SDS011;40551;50.478;19.378;2022-07-23T11:56:03;12.60;;;6.70;;
53525;SDS011;40551;50.478;19.378;2022-07-23T11:58:37;10.80;;;6.70;;
53525;SDS011;40551;50.478;19.378;2022-07-23T12:01:23;10.60;;;6.80;;
53525;SDS011;40551;50.478;19.378;2022-07-23T12:03:55;9.70;;;6.10;;
53525;SDS011;40551;50.478;19.378;2022-07-23T12:06:27;10.10;;;6.70;;
53525;SDS011;40551;50.478;19.378;2022-07-23T12:08:59;9.50;;;6.50;;
53525;SDS011;40551;50.478;19.378;2022-07-23T12:11:30;12.30;;;6.50;;
53525;SDS011;40551;50.478;19.378;2022-07-23T12:14:02;10.70;;;6.80;;
53525;SDS011;40551;50.478;19.378;2022-07-23T12:16:35;8.10;;;6.30;;
53525;SDS011;40551;50.478;19.378;2022-07-23T12:19:06;10.10;;;7.10;;
53525;SDS011;40551;50.478;19.378;2022-07-23T12:21:38;10.20;;;6.80;;
53525;SDS011;40551;50.478;19.378;2022-07-23T12:24:10;10.10;;;7.20;;
53525;SDS011;40551;50.478;19.378;2022-07-23T12:26:59;13.70;;;7.00;;
53525;SDS011;40551;50.478;19.378;2022-07-23T12:29:40;11.60;;;7.00;;
53525;SDS011;40551;50.478;19.378;2022-07-23T12:32:19;10.60;;;6.90;;
53525;SDS011;40551;50.478;19.378;2022-07-23T12:35:01;11.10;;;6.80;;
53525;SDS011;40551;50.478;19.378;2022-07-23T12:37:35;10.60;;;5.90;;
53525;SDS011;40551;50.478;19.378;2022-07-23T12:40:22;12.70;;;6.90;;
53525;SDS011;40551;50.478;19.378;2022-07-23T12:42:56;12.10;;;6.80;;
53525;SDS011;40551;50.478;19.378;2022-07-23T12:45:41;9.70;;;6.40;;
53525;SDS011;40551;50.478;19.378;2022-07-23T12:48:19;10.50;;;6.60;;
53525;SDS011;40551;50.478;19.378;2022-07-23T12:50:53;10.10;;;6.10;;
53525;SDS011;40551;50.478;19.378;2022-07-23T12:53:28;9.00;;;6.20;;
53525;SDS011;40551;50.478;19.378;2022-07-23T12:56:03;10.60;;;6.50;;
53525;SDS011;40551;50.478;19.378;2022-07-23T12:58:44;9.80;;;6.30;;
53525;SDS011;40551;50.478;19.378;2022-07-23T13:01:38;9.90;;;6.40;;
53525;SDS011;40551;50.478;19.378;2022-07-23T13:04:14;11.70;;;6.10;;
53525;SDS011;40551;50.478;19.378;2022-07-23T13:06:50;11.50;;;6.20;;
53525;SDS011;40551;50.478;19.378;2022-07-23T13:09:28;11.40;;;6.20;;
53525;SDS011;40551;50.478;19.378;2022-07-23T13:12:09;9.50;;;5.90;;
53525;SDS011;40551;50.478;19.378;2022-07-23T13:14:41;9.60;;;5.20;;
53525;SDS011;40551;50.478;19.378;2022-07-23T13:17:13;8.90;;;6.50;;
53525;SDS011;40551;50.478;19.378;2022-07-23T13:19:48;8.60;;;6.00;;
53525;SDS011;40551;50.478;19.378;2022-07-23T13:22:20;9.00;;;5.90;;
53525;SDS011;40551;50.478;19.378;2022-07-23T13:24:51;9.30;;;5.90;;
53525;SDS011;40551;50.478;19.378;2022-07-23T13:27:23;10.20;;;6.40;;
53525;SDS011;40551;50.478;19.378;2022-07-23T13:29:55;10.70;;;6.00;;
53525;SDS011;40551;50.478;19.378;2022-07-23T13:32:26;9.30;;;6.00;;
53525;SDS011;40551;50.478;19.378;2022-07-23T13:34:58;14.70;;;6.70;;
53525;SDS011;40551;50.478;19.378;2022-07-23T13:37:30;10.50;;;6.80;;
53525;SDS011;40551;50.478;19.378;2022-07-23T13:40:02;9.10;;;6.70;;
53525;SDS011;40551;50.478;19.378;2022-07-23T13:42:54;11.30;;;6.70;;
53525;SDS011;40551;50.478;19.378;2022-07-23T13:45:27;9.80;;;6.50;;
53525;SDS011;40551;50.478;19.378;2022-07-23T13:47:59;10.00;;;7.40;;
53525;SDS011;40551;50.478;19.378;2022-07-23T13:50:35;15.30;;;7.10;;
53525;SDS011;40551;50.478;19.378;2022-07-23T13:53:08;15.70;;;7.00;;
53525;SDS011;40551;50.478;19.378;2022-07-23T13:55:41;13.00;;;6.90;;
53525;SDS011;40551;50.478;19.378;2022-07-23T13:58:17;10.20;;;5.80;;
53525;SDS011;40551;50.478;19.378;2022-07-23T14:00:52;11.90;;;6.90;;
53525;SDS011;40551;50.478;19.378;2022-07-23T14:03:24;13.30;;;7.20;;
53525;SDS011;40551;50.478;19.378;2022-07-23T14:05:56;16.90;;;6.60;;
53525;SDS011;40551;50.478;19.378;2022-07-23T14:08:29;10.00;;;6.60;;
53525;SDS011;40551;50.478;19.378;2022-07-23T14:11:00;14.10;;;6.30;;
53525;SDS011;40551;50.478;19.378;2022-07-23T14:13:35;11.50;;;6.70;;
53525;SDS011;40551;50.478;19.378;2022-07-23T14:16:07;14.00;;;6.60;;
53525;SDS011;40551;50.478;19.378;2022-07-23T14:18:39;15.30;;;6.40;;
53525;SDS011;40551;50.478;19.378;2022-07-23T14:21:10;23.70;;;7.10;;
53525;SDS011;40551;50.478;19.378;2022-07-23T14:23:42;23.20;;;6.60;;
53525;SDS011;40551;50.478;19.378;2022-07-23T14:26:14;33.10;;;7.20;;
53525;SDS011;40551;50.478;19.378;2022-07-23T14:28:46;39.50;;;7.60;;
53525;SDS011;40551;50.478;19.378;2022-07-23T14:31:17;53.60;;;10.80;;
53525;SDS011;40551;50.478;19.378;2022-07-23T14:33:49;31.30;;;8.10;;
53525;SDS011;40551;50.478;19.378;2022-07-23T14:36:23;30.30;;;9.40;;
53525;SDS011;40551;50.478;19.378;2022-07-23T14:38:56;19.80;;;7.80;;
53525;SDS011;40551;50.478;19.378;2022-07-23T14:41:29;18.10;;;7.20;;
53525;SDS011;40551;50.478;19.378;2022-07-23T14:44:01;25.20;;;7.80;;
53525;SDS011;40551;50.478;19.378;2022-07-23T14:46:34;23.70;;;9.10;;
53525;SDS011;40551;50.478;19.378;2022-07-23T14:49:06;36.60;;;9.20;;
53525;SDS011;40551;50.478;19.378;2022-07-23T14:51:38;31.40;;;7.80;;
53525;SDS011;40551;50.478;19.378;2022-07-23T14:54:11;21.90;;;9.30;;
53525;SDS011;40551;50.478;19.378;2022-07-23T14:56:43;27.10;;;9.40;;
53525;SDS011;40551;50.478;19.378;2022-07-23T14:59:15;27.40;;;10.40;;
53525;SDS011;40551;50.478;19.378;2022-07-23T15:01:46;23.90;;;9.40;;
53525;SDS011;40551;50.478;19.378;2022-07-23T15:04:18;15.50;;;8.00;;
53525;SDS011;40551;50.478;19.378;2022-07-23T15:07:06;26.10;;;8.20;;
53525;SDS011;40551;50.478;19.378;2022-07-23T15:09:39;23.70;;;8.70;;
53525;SDS011;40551;50.478;19.378;2022-07-23T15:12:11;16.60;;;8.00;;
53525;SDS011;40551;50.478;19.378;2022-07-23T15:14:43;19.00;;;8.70;;